sensor_id;sensor_type;location;lat;lon;timestamp;temperature;humidity
51837;DHT22;38941;53.254;6.600;2022-12-22T00:01:00;8.10;99.90
51837;DHT22;38941;53.254;6.600;2022-12-22T00:03:20;8.20;99.90
51837;DHT22;38941;53.254;6.600;2022-12-22T00:05:39;8.10;99.90
51837;DHT22;38941;53.254;6.600;2022-12-22T00:07:59;8.20;99.90
51837;DHT22;38941;53.254;6.600;2022-12-22T00:10:18;8.10;99.90
51837;DHT22;38941;53.254;6.600;2022-12-22T00:12:38;8.10;99.90
51837;DHT22;38941;53.254;6.600;2022-12-22T00:14:58;8.20;99.90
51837;DHT22;38941;53.254;6.600;2022-12-22T00:17:27;8.70;99.90
51837;DHT22;38941;53.254;6.600;2022-12-22T00:19:46;8.10;99.90
51837;DHT22;38941;53.254;6.600;2022-12-22T00:22:14;8.30;99.90
51837;DHT22;38941;53.254;6.600;2022-12-22T00:24:34;8.30;99.90
51837;DHT22;38941;53.254;6.600;2022-12-22T00:26:54;8.20;99.90
51837;DHT22;38941;53.254;6.600;2022-12-22T00:29:15;8.20;99.90
51837;DHT22;38941;53.254;6.600;2022-12-22T00:31:34;8.70;99.90
51837;DHT22;38941;53.254;6.600;2022-12-22T00:33:54;8.20;99.90
51837;DHT22;38941;53.254;6.600;2022-12-22T00:36:14;8.20;99.90
51837;DHT22;38941;53.254;6.600;2022-12-22T00:38:33;8.20;99.90
51837;DHT22;38941;53.254;6.600;2022-12-22T00:40:53;8.20;99.90
51837;DHT22;38941;53.254;6.600;2022-12-22T00:43:13;8.20;99.90
51837;DHT22;38941;53.254;6.600;2022-12-22T00:45:34;8.30;99.90
51837;DHT22;38941;53.254;6.600;2022-12-22T00:47:55;8.40;99.90
51837;DHT22;38941;53.254;6.600;2022-12-22T00:50:15;8.20;99.90
51837;DHT22;38941;53.254;6.600;2022-12-22T00:52:35;8.60;99.90
51837;DHT22;38941;53.254;6.600;2022-12-22T00:54:55;8.20;99.90
51837;DHT22;38941;53.254;6.600;2022-12-22T00:57:16;8.20;99.90
51837;DHT22;38941;53.254;6.600;2022-12-22T00:59:36;8.20;99.90
51837;DHT22;38941;53.254;6.600;2022-12-22T01:01:56;8.20;99.90
51837;DHT22;38941;53.254;6.600;2022-12-22T01:04:16;8.20;99.90
51837;DHT22;38941;53.254;6.600;2022-12-22T01:06:36;8.40;99.90
51837;DHT22;38941;53.254;6.600;2022-12-22T01:08:55;8.30;99.90
51837;DHT22;38941;53.254;6.600;2022-12-22T01:11:15;8.30;99.90
51837;DHT22;38941;53.254;6.600;2022-12-22T01:13:35;8.30;99.90
51837;DHT22;38941;53.254;6.600;2022-12-22T01:15:54;8.20;99.90
51837;DHT22;38941;53.254;6.600;2022-12-22T01:18:13;8.30;99.90
51837;DHT22;38941;53.254;6.600;2022-12-22T01:20:33;8.30;99.90
51837;DHT22;38941;53.254;6.600;2022-12-22T01:22:53;8.30;99.90
51837;DHT22;38941;53.254;6.600;2022-12-22T01:25:16;8.30;99.90
51837;DHT22;38941;53.254;6.600;2022-12-22T01:27:36;8.30;99.90
51837;DHT22;38941;53.254;6.600;2022-12-22T01:29:56;8.30;99.90
51837;DHT22;38941;53.254;6.600;2022-12-22T01:32:16;8.30;99.90
51837;DHT22;38941;53.254;6.600;2022-12-22T01:34:36;8.30;99.90
51837;DHT22;38941;53.254;6.600;2022-12-22T01:36:56;8.30;99.90
51837;DHT22;38941;53.254;6.600;2022-12-22T01:39:15;8.30;99.90
51837;DHT22;38941;53.254;6.600;2022-12-22T01:41:34;8.20;99.90
51837;DHT22;38941;53.254;6.600;2022-12-22T01:43:54;8.30;99.90
51837;DHT22;38941;53.254;6.600;2022-12-22T01:46:27;8.30;99.90
51837;DHT22;38941;53.254;6.600;2022-12-22T01:48:46;8.30;99.90
51837;DHT22;38941;53.254;6.600;2022-12-22T01:51:10;8.30;99.90
51837;DHT22;38941;53.254;6.600;2022-12-22T01:53:31;8.30;99.90
51837;DHT22;38941;53.254;6.600;2022-12-22T01:55:50;8.30;99.90
51837;DHT22;38941;53.254;6.600;2022-12-22T01:58:16;8.30;99.90
51837;DHT22;38941;53.254;6.600;2022-12-22T02:00:39;8.60;99.90
51837;DHT22;38941;53.254;6.600;2022-12-22T02:03:00;8.30;99.90
51837;DHT22;38941;53.254;6.600;2022-12-22T02:05:21;8.30;99.90
51837;DHT22;38941;53.254;6.600;2022-12-22T02:07:51;8.30;99.90
51837;DHT22;38941;53.254;6.600;2022-12-22T02:10:26;8.30;99.90
51837;DHT22;38941;53.254;6.600;2022-12-22T02:12:53;8.30;99.90
51837;DHT22;38941;53.254;6.600;2022-12-22T02:15:35;8.30;99.90
51837;DHT22;38941;53.254;6.600;2022-12-22T02:18:22;8.30;99.90
51837;DHT22;38941;53.254;6.600;2022-12-22T02:21:10;8.30;99.90
51837;DHT22;38941;53.254;6.600;2022-12-22T02:26:36;8.30;99.90
51837;DHT22;38941;53.254;6.600;2022-12-22T02:28:57;8.30;99.90
51837;DHT22;38941;53.254;6.600;2022-12-22T02:31:17;8.30;99.90
51837;DHT22;38941;53.254;6.600;2022-12-22T02:33:36;8.30;99.90
51837;DHT22;38941;53.254;6.600;2022-12-22T02:41:18;8.30;99.90
51837;DHT22;38941;53.254;6.600;2022-12-22T02:48:50;8.30;99.90
51837;DHT22;38941;53.254;6.600;2022-12-22T02:51:20;8.30;99.90
51837;DHT22;38941;53.254;6.600;2022-12-22T02:53:41;8.40;99.90
51837;DHT22;38941;53.254;6.600;2022-12-22T02:56:06;8.30;99.90
51837;DHT22;38941;53.254;6.600;2022-12-22T02:58:27;8.30;99.90
51837;DHT22;38941;53.254;6.600;2022-12-22T03:00:50;8.30;99.90
51837;DHT22;38941;53.254;6.600;2022-12-22T03:03:11;8.30;99.90
51837;DHT22;38941;53.254;6.600;2022-12-22T03:05:31;8.70;99.90
51837;DHT22;38941;53.254;6.600;2022-12-22T03:07:50;8.30;99.90
51837;DHT22;38941;53.254;6.600;2022-12-22T03:10:09;8.60;99.90
51837;DHT22;38941;53.254;6.600;2022-12-22T03:12:29;8.30;99.90
51837;DHT22;38941;53.254;6.600;2022-12-22T03:14:48;8.30;99.90
51837;DHT22;38941;53.254;6.600;2022-12-22T03:17:08;8.30;99.90
51837;DHT22;38941;53.254;6.600;2022-12-22T03:19:29;8.30;99.90
51837;DHT22;38941;53.254;6.600;2022-12-22T03:21:48;8.40;99.90
51837;DHT22;38941;53.254;6.600;2022-12-22T03:24:08;8.30;99.90
51837;DHT22;38941;53.254;6.600;2022-12-22T03:26:29;8.30;99.90
51837;DHT22;38941;53.254;6.600;2022-12-22T03:28:30;8.30;99.90
51837;DHT22;38941;53.254;6.600;2022-12-22T03:30:32;8.30;99.90
51837;DHT22;38941;53.254;6.600;2022-12-22T03:32:34;8.40;99.90
51837;DHT22;38941;53.254;6.600;2022-12-22T03:34:36;8.40;99.90
51837;DHT22;38941;53.254;6.600;2022-12-22T03:36:37;8.40;99.90
51837;DHT22;38941;53.254;6.600;2022-12-22T03:38:37;8.40;99.90
51837;DHT22;38941;53.254;6.600;2022-12-22T03:40:39;8.30;99.90
51837;DHT22;38941;53.254;6.600;2022-12-22T03:42:41;8.30;99.90
51837;DHT22;38941;53.254;6.600;2022-12-22T03:45:01;8.40;99.90
51837;DHT22;38941;53.254;6.600;2022-12-22T03:47:20;8.30;99.90
51837;DHT22;38941;53.254;6.600;2022-12-22T03:49:27;8.40;99.90
51837;DHT22;38941;53.254;6.600;2022-12-22T03:51:28;8.30;99.90
51837;DHT22;38941;53.254;6.600;2022-12-22T03:53:28;8.40;99.90
51837;DHT22;38941;53.254;6.600;2022-12-22T03:55:29;8.80;99.90
51837;DHT22;38941;53.254;6.600;2022-12-22T03:57:30;8.30;99.90
51837;DHT22;38941;53.254;6.600;2022-12-22T03:59:31;8.30;99.90
51837;DHT22;38941;53.254;6.600;2022-12-22T04:01:50;8.20;99.90
51837;DHT22;38941;53.254;6.600;2022-12-22T04:03:51;8.30;99.90
51837;DHT22;38941;53.254;6.600;2022-12-22T04:05:54;8.30;99.90
51837;DHT22;38941;53.254;6.600;2022-12-22T04:07:56;8.30;99.90
51837;DHT22;38941;53.254;6.600;2022-12-22T04:09:57;8.60;99.90
51837;DHT22;38941;53.254;6.600;2022-12-22T04:12:17;8.30;99.90
51837;DHT22;38941;53.254;6.600;2022-12-22T04:14:36;8.30;99.90
51837;DHT22;38941;53.254;6.600;2022-12-22T04:16:36;8.30;99.90
51837;DHT22;38941;53.254;6.600;2022-12-22T04:18:38;8.40;99.90
51837;DHT22;38941;53.254;6.600;2022-12-22T04:20:42;8.50;99.90
51837;DHT22;38941;53.254;6.600;2022-12-22T04:22:48;8.80;99.90
51837;DHT22;38941;53.254;6.600;2022-12-22T04:24:50;8.20;99.90
51837;DHT22;38941;53.254;6.600;2022-12-22T04:26:53;8.30;99.90
51837;DHT22;38941;53.254;6.600;2022-12-22T04:28:54;8.30;99.90
51837;DHT22;38941;53.254;6.600;2022-12-22T04:30:56;8.90;99.90
51837;DHT22;38941;53.254;6.600;2022-12-22T04:32:57;8.20;99.90
51837;DHT22;38941;53.254;6.600;2022-12-22T04:34:57;8.20;99.90
51837;DHT22;38941;53.254;6.600;2022-12-22T04:36:58;8.10;99.90
51837;DHT22;38941;53.254;6.600;2022-12-22T04:39:09;8.20;99.90
51837;DHT22;38941;53.254;6.600;2022-12-22T04:41:10;8.20;99.90
51837;DHT22;38941;53.254;6.600;2022-12-22T04:43:10;8.20;99.90
51837;DHT22;38941;53.254;6.600;2022-12-22T04:45:12;8.20;99.90
51837;DHT22;38941;53.254;6.600;2022-12-22T04:47:13;8.20;99.90
51837;DHT22;38941;53.254;6.600;2022-12-22T04:49:13;8.30;99.90
51837;DHT22;38941;53.254;6.600;2022-12-22T04:51:14;8.20;99.90
51837;DHT22;38941;53.254;6.600;2022-12-22T04:53:15;8.20;99.90
51837;DHT22;38941;53.254;6.600;2022-12-22T04:55:16;8.20;99.90
51837;DHT22;38941;53.254;6.600;2022-12-22T04:57:17;8.10;99.90
51837;DHT22;38941;53.254;6.600;2022-12-22T04:59:17;8.20;99.90
51837;DHT22;38941;53.254;6.600;2022-12-22T05:01:20;8.30;99.90
51837;DHT22;38941;53.254;6.600;2022-12-22T05:03:22;8.10;99.90
51837;DHT22;38941;53.254;6.600;2022-12-22T05:05:24;8.20;99.90
51837;DHT22;38941;53.254;6.600;2022-12-22T05:07:25;8.10;99.90
51837;DHT22;38941;53.254;6.600;2022-12-22T05:09:26;8.10;99.90
51837;DHT22;38941;53.254;6.600;2022-12-22T05:11:28;8.10;99.90
51837;DHT22;38941;53.254;6.600;2022-12-22T05:13:30;8.10;99.90
51837;DHT22;38941;53.254;6.600;2022-12-22T05:15:32;8.10;99.90
51837;DHT22;38941;53.254;6.600;2022-12-22T05:17:33;8.10;99.90
51837;DHT22;38941;53.254;6.600;2022-12-22T05:19:34;8.00;99.90
51837;DHT22;38941;53.254;6.600;2022-12-22T05:21:35;8.10;99.90
51837;DHT22;38941;53.254;6.600;2022-12-22T05:23:37;8.10;99.90
51837;DHT22;38941;53.254;6.600;2022-12-22T05:25:38;8.20;99.90
51837;DHT22;38941;53.254;6.600;2022-12-22T05:27:39;8.10;99.90
51837;DHT22;38941;53.254;6.600;2022-12-22T05:29:40;8.00;99.90
51837;DHT22;38941;53.254;6.600;2022-12-22T05:31:41;8.00;99.90
51837;DHT22;38941;53.254;6.600;2022-12-22T05:33:43;8.00;99.90
51837;DHT22;38941;53.254;6.600;2022-12-22T05:35:43;8.00;99.90
51837;DHT22;38941;53.254;6.600;2022-12-22T05:37:44;7.80;99.90
51837;DHT22;38941;53.254;6.600;2022-12-22T05:39:45;8.00;99.90
51837;DHT22;38941;53.254;6.600;2022-12-22T05:41:46;8.00;99.90
51837;DHT22;38941;53.254;6.600;2022-12-22T05:43:48;8.00;99.90
51837;DHT22;38941;53.254;6.600;2022-12-22T05:45:50;8.00;99.90
51837;DHT22;38941;53.254;6.600;2022-12-22T05:47:52;7.90;99.90
51837;DHT22;38941;53.254;6.600;2022-12-22T05:49:54;7.90;99.90
51837;DHT22;38941;53.254;6.600;2022-12-22T05:51:54;8.00;99.90
51837;DHT22;38941;53.254;6.600;2022-12-22T05:53:57;7.90;99.90
51837;DHT22;38941;53.254;6.600;2022-12-22T05:55:57;8.30;99.90
51837;DHT22;38941;53.254;6.600;2022-12-22T05:57:58;7.90;99.90
51837;DHT22;38941;53.254;6.600;2022-12-22T06:00:02;7.90;99.90
51837;DHT22;38941;53.254;6.600;2022-12-22T06:02:04;7.90;99.90
51837;DHT22;38941;53.254;6.600;2022-12-22T06:04:05;7.90;99.90
51837;DHT22;38941;53.254;6.600;2022-12-22T06:06:07;7.90;99.90
51837;DHT22;38941;53.254;6.600;2022-12-22T06:08:10;7.80;99.90
51837;DHT22;38941;53.254;6.600;2022-12-22T06:10:12;7.90;99.90
51837;DHT22;38941;53.254;6.600;2022-12-22T06:12:13;7.90;99.90
51837;DHT22;38941;53.254;6.600;2022-12-22T06:14:14;7.90;99.90
51837;DHT22;38941;53.254;6.600;2022-12-22T06:16:14;7.80;99.90
51837;DHT22;38941;53.254;6.600;2022-12-22T06:18:15;7.70;99.90
51837;DHT22;38941;53.254;6.600;2022-12-22T06:20:16;7.70;99.90
51837;DHT22;38941;53.254;6.600;2022-12-22T06:22:17;7.70;99.90
51837;DHT22;38941;53.254;6.600;2022-12-22T06:24:17;7.70;99.90
51837;DHT22;38941;53.254;6.600;2022-12-22T06:26:18;7.60;99.90
51837;DHT22;38941;53.254;6.600;2022-12-22T06:28:19;7.70;99.90
51837;DHT22;38941;53.254;6.600;2022-12-22T06:30:20;7.60;99.90
51837;DHT22;38941;53.254;6.600;2022-12-22T06:32:20;7.60;99.90
51837;DHT22;38941;53.254;6.600;2022-12-22T06:34:21;7.50;99.90
51837;DHT22;38941;53.254;6.600;2022-12-22T06:36:23;7.40;99.90
51837;DHT22;38941;53.254;6.600;2022-12-22T06:38:26;7.40;99.90
51837;DHT22;38941;53.254;6.600;2022-12-22T06:40:26;7.30;99.90
51837;DHT22;38941;53.254;6.600;2022-12-22T06:42:27;7.30;99.90
51837;DHT22;38941;53.254;6.600;2022-12-22T06:44:47;7.20;99.90
51837;DHT22;38941;53.254;6.600;2022-12-22T06:46:50;7.30;99.90
51837;DHT22;38941;53.254;6.600;2022-12-22T06:48:51;7.30;99.90
51837;DHT22;38941;53.254;6.600;2022-12-22T06:50:59;7.20;99.90
51837;DHT22;38941;53.254;6.600;2022-12-22T06:53:02;6.70;99.90
51837;DHT22;38941;53.254;6.600;2022-12-22T06:55:04;7.70;99.90
51837;DHT22;38941;53.254;6.600;2022-12-22T06:57:05;7.10;99.90
51837;DHT22;38941;53.254;6.600;2022-12-22T06:59:06;7.10;99.90
51837;DHT22;38941;53.254;6.600;2022-12-22T07:01:07;7.10;99.90
51837;DHT22;38941;53.254;6.600;2022-12-22T07:03:08;7.20;99.90
51837;DHT22;38941;53.254;6.600;2022-12-22T07:05:09;7.20;99.90
51837;DHT22;38941;53.254;6.600;2022-12-22T07:07:11;7.60;99.90
51837;DHT22;38941;53.254;6.600;2022-12-22T07:09:13;7.20;99.90
51837;DHT22;38941;53.254;6.600;2022-12-22T07:11:14;7.10;99.90
51837;DHT22;38941;53.254;6.600;2022-12-22T07:13:15;7.10;99.90
51837;DHT22;38941;53.254;6.600;2022-12-22T07:15:24;7.20;99.90
51837;DHT22;38941;53.254;6.600;2022-12-22T07:17:25;7.60;99.90
51837;DHT22;38941;53.254;6.600;2022-12-22T07:19:26;7.10;99.90
51837;DHT22;38941;53.254;6.600;2022-12-22T07:21:30;7.10;99.90
51837;DHT22;38941;53.254;6.600;2022-12-22T07:23:32;7.10;99.90
51837;DHT22;38941;53.254;6.600;2022-12-22T07:25:33;7.00;99.90
51837;DHT22;38941;53.254;6.600;2022-12-22T07:27:35;7.00;99.90
51837;DHT22;38941;53.254;6.600;2022-12-22T07:29:37;6.90;99.90
51837;DHT22;38941;53.254;6.600;2022-12-22T07:31:40;6.90;99.90
51837;DHT22;38941;53.254;6.600;2022-12-22T07:33:40;6.80;99.90
51837;DHT22;38941;53.254;6.600;2022-12-22T07:35:42;7.20;99.90
51837;DHT22;38941;53.254;6.600;2022-12-22T07:37:43;6.00;99.90
51837;DHT22;38941;53.254;6.600;2022-12-22T07:39:43;6.70;99.90
51837;DHT22;38941;53.254;6.600;2022-12-22T07:41:50;6.60;99.90
51837;DHT22;38941;53.254;6.600;2022-12-22T07:44:09;6.60;99.90
51837;DHT22;38941;53.254;6.600;2022-12-22T07:46:10;7.20;99.90
51837;DHT22;38941;53.254;6.600;2022-12-22T07:48:11;6.60;99.90
51837;DHT22;38941;53.254;6.600;2022-12-22T07:50:30;6.60;99.90
51837;DHT22;38941;53.254;6.600;2022-12-22T07:52:32;6.60;99.90
51837;DHT22;38941;53.254;6.600;2022-12-22T07:54:34;6.60;99.90
51837;DHT22;38941;53.254;6.600;2022-12-22T07:56:35;6.60;99.90
51837;DHT22;38941;53.254;6.600;2022-12-22T07:58:37;6.60;99.90
51837;DHT22;38941;53.254;6.600;2022-12-22T08:00:38;6.50;99.90
51837;DHT22;38941;53.254;6.600;2022-12-22T08:02:38;7.00;99.90
51837;DHT22;38941;53.254;6.600;2022-12-22T08:04:42;6.50;99.90
51837;DHT22;38941;53.254;6.600;2022-12-22T08:06:45;6.50;99.90
51837;DHT22;38941;53.254;6.600;2022-12-22T08:08:46;6.50;99.90
51837;DHT22;38941;53.254;6.600;2022-12-22T08:10:46;6.60;99.90
51837;DHT22;38941;53.254;6.600;2022-12-22T08:12:47;6.50;99.90
51837;DHT22;38941;53.254;6.600;2022-12-22T08:14:48;6.50;99.90
51837;DHT22;38941;53.254;6.600;2022-12-22T08:16:48;6.50;99.90
51837;DHT22;38941;53.254;6.600;2022-12-22T08:18:49;6.50;99.90
51837;DHT22;38941;53.254;6.600;2022-12-22T08:20:51;6.50;99.90
51837;DHT22;38941;53.254;6.600;2022-12-22T08:22:52;6.40;99.90
51837;DHT22;38941;53.254;6.600;2022-12-22T08:24:53;6.40;99.90
51837;DHT22;38941;53.254;6.600;2022-12-22T08:26:56;6.40;99.90
51837;DHT22;38941;53.254;6.600;2022-12-22T08:29:07;6.40;99.90
51837;DHT22;38941;53.254;6.600;2022-12-22T08:31:10;6.40;99.90
51837;DHT22;38941;53.254;6.600;2022-12-22T08:33:12;6.40;99.90
51837;DHT22;38941;53.254;6.600;2022-12-22T08:35:13;6.40;99.90
51837;DHT22;38941;53.254;6.600;2022-12-22T08:37:15;6.50;99.90
51837;DHT22;38941;53.254;6.600;2022-12-22T08:39:21;6.50;99.90
51837;DHT22;38941;53.254;6.600;2022-12-22T08:41:24;6.60;99.90
51837;DHT22;38941;53.254;6.600;2022-12-22T08:43:43;6.50;99.90
51837;DHT22;38941;53.254;6.600;2022-12-22T08:45:43;6.60;99.90
51837;DHT22;38941;53.254;6.600;2022-12-22T08:47:45;6.50;99.90
51837;DHT22;38941;53.254;6.600;2022-12-22T08:49:47;6.60;99.90
51837;DHT22;38941;53.254;6.600;2022-12-22T08:51:48;6.90;99.90
51837;DHT22;38941;53.254;6.600;2022-12-22T08:53:49;6.50;99.90
51837;DHT22;38941;53.254;6.600;2022-12-22T08:55:54;6.50;99.90
51837;DHT22;38941;53.254;6.600;2022-12-22T08:57:55;6.50;99.90
51837;DHT22;38941;53.254;6.600;2022-12-22T08:59:57;6.50;99.90
51837;DHT22;38941;53.254;6.600;2022-12-22T09:01:58;7.10;99.90
51837;DHT22;38941;53.254;6.600;2022-12-22T09:04:05;6.50;99.90
51837;DHT22;38941;53.254;6.600;2022-12-22T09:06:06;6.50;99.90
51837;DHT22;38941;53.254;6.600;2022-12-22T09:08:07;6.50;99.90
51837;DHT22;38941;53.254;6.600;2022-12-22T09:10:08;6.50;99.90
51837;DHT22;38941;53.254;6.600;2022-12-22T09:12:10;6.50;99.90
51837;DHT22;38941;53.254;6.600;2022-12-22T09:14:11;6.40;99.90
51837;DHT22;38941;53.254;6.600;2022-12-22T09:16:13;6.50;99.90
51837;DHT22;38941;53.254;6.600;2022-12-22T09:18:14;6.50;99.90
51837;DHT22;38941;53.254;6.600;2022-12-22T09:20:15;6.50;99.90
51837;DHT22;38941;53.254;6.600;2022-12-22T09:22:15;6.50;99.90
51837;DHT22;38941;53.254;6.600;2022-12-22T09:24:18;6.90;99.90
51837;DHT22;38941;53.254;6.600;2022-12-22T09:26:23;6.40;99.90
51837;DHT22;38941;53.254;6.600;2022-12-22T09:28:24;6.90;99.90
51837;DHT22;38941;53.254;6.600;2022-12-22T09:30:25;6.50;99.90
51837;DHT22;38941;53.254;6.600;2022-12-22T09:32:27;7.30;99.90
51837;DHT22;38941;53.254;6.600;2022-12-22T09:34:29;5.30;99.90
51837;DHT22;38941;53.254;6.600;2022-12-22T09:36:30;6.60;99.90
51837;DHT22;38941;53.254;6.600;2022-12-22T09:38:34;6.60;99.90
51837;DHT22;38941;53.254;6.600;2022-12-22T09:40:36;6.70;99.90
51837;DHT22;38941;53.254;6.600;2022-12-22T09:42:38;6.10;99.90
51837;DHT22;38941;53.254;6.600;2022-12-22T09:44:41;7.20;99.90
51837;DHT22;38941;53.254;6.600;2022-12-22T09:46:45;6.60;99.90
51837;DHT22;38941;53.254;6.600;2022-12-22T09:48:47;7.30;99.90
51837;DHT22;38941;53.254;6.600;2022-12-22T09:50:49;6.60;99.90
51837;DHT22;38941;53.254;6.600;2022-12-22T09:52:59;6.60;99.90
51837;DHT22;38941;53.254;6.600;2022-12-22T09:55:50;6.70;99.90
51837;DHT22;38941;53.254;6.600;2022-12-22T09:57:30;6.80;99.90
51837;DHT22;38941;53.254;6.600;2022-12-22T09:59:32;5.50;99.90
51837;DHT22;38941;53.254;6.600;2022-12-22T10:01:48;7.50;99.90
51837;DHT22;38941;53.254;6.600;2022-12-22T10:04:30;6.80;99.90
51837;DHT22;38941;53.254;6.600;2022-12-22T10:06:54;6.60;99.90
51837;DHT22;38941;53.254;6.600;2022-12-22T10:09:13;7.00;99.90
51837;DHT22;38941;53.254;6.600;2022-12-22T10:11:17;7.40;99.90
51837;DHT22;38941;53.254;6.600;2022-12-22T10:13:18;7.40;99.90
51837;DHT22;38941;53.254;6.600;2022-12-22T10:15:19;7.50;99.90
51837;DHT22;38941;53.254;6.600;2022-12-22T10:19:25;7.80;99.90
51837;DHT22;38941;53.254;6.600;2022-12-22T10:21:27;7.90;99.90
51837;DHT22;38941;53.254;6.600;2022-12-22T10:23:28;8.00;99.90
51837;DHT22;38941;53.254;6.600;2022-12-22T10:27:35;8.40;99.90
51837;DHT22;38941;53.254;6.600;2022-12-22T10:29:37;8.60;99.90
51837;DHT22;38941;53.254;6.600;2022-12-22T10:31:58;8.70;99.90
51837;DHT22;38941;53.254;6.600;2022-12-22T10:34:14;9.30;99.90
51837;DHT22;38941;53.254;6.600;2022-12-22T10:36:27;8.60;99.90
51837;DHT22;38941;53.254;6.600;2022-12-22T10:38:38;8.70;99.90
51837;DHT22;38941;53.254;6.600;2022-12-22T10:40:45;8.90;99.90
51837;DHT22;38941;53.254;6.600;2022-12-22T10:42:51;9.00;99.90
51837;DHT22;38941;53.254;6.600;2022-12-22T10:44:53;8.90;99.90
51837;DHT22;38941;53.254;6.600;2022-12-22T10:47:09;9.00;99.90
51837;DHT22;38941;53.254;6.600;2022-12-22T10:51:23;9.20;99.90
51837;DHT22;38941;53.254;6.600;2022-12-22T10:53:56;9.40;99.90
51837;DHT22;38941;53.254;6.600;2022-12-22T10:56:05;9.50;99.90
51837;DHT22;38941;53.254;6.600;2022-12-22T11:00:30;9.70;99.90
51837;DHT22;38941;53.254;6.600;2022-12-22T11:02:34;9.60;99.90
51837;DHT22;38941;53.254;6.600;2022-12-22T11:04:36;9.50;99.90
51837;DHT22;38941;53.254;6.600;2022-12-22T11:06:41;9.50;99.90
51837;DHT22;38941;53.254;6.600;2022-12-22T11:08:42;9.50;99.90
51837;DHT22;38941;53.254;6.600;2022-12-22T11:11:02;9.50;99.90
51837;DHT22;38941;53.254;6.600;2022-12-22T11:15:36;9.50;99.90
51837;DHT22;38941;53.254;6.600;2022-12-22T11:22:38;9.40;99.90
51837;DHT22;38941;53.254;6.600;2022-12-22T11:27:09;9.60;99.90
51837;DHT22;38941;53.254;6.600;2022-12-22T11:32:20;9.80;99.90
51837;DHT22;38941;53.254;6.600;2022-12-22T11:34:55;10.00;99.90
51837;DHT22;38941;53.254;6.600;2022-12-22T11:37:09;10.10;99.90
51837;DHT22;38941;53.254;6.600;2022-12-22T11:39:30;10.30;99.90
51837;DHT22;38941;53.254;6.600;2022-12-22T11:46:29;10.20;99.90
51837;DHT22;38941;53.254;6.600;2022-12-22T11:50:48;10.30;99.90
51837;DHT22;38941;53.254;6.600;2022-12-22T11:53:22;11.30;99.90
51837;DHT22;38941;53.254;6.600;2022-12-22T11:55:32;10.50;99.90
51837;DHT22;38941;53.254;6.600;2022-12-22T12:06:28;10.90;99.90
51837;DHT22;38941;53.254;6.600;2022-12-22T12:09:06;10.90;99.90
51837;DHT22;38941;53.254;6.600;2022-12-22T12:13:37;11.10;99.90
51837;DHT22;38941;53.254;6.600;2022-12-22T12:15:49;11.10;99.90
51837;DHT22;38941;53.254;6.600;2022-12-22T12:34:11;11.50;99.90
51837;DHT22;38941;53.254;6.600;2022-12-22T12:39:20;11.60;99.90
51837;DHT22;38941;53.254;6.600;2022-12-22T12:43:22;11.40;99.90
51837;DHT22;38941;53.254;6.600;2022-12-22T12:45:36;11.40;99.90
51837;DHT22;38941;53.254;6.600;2022-12-22T12:47:37;11.20;99.90
51837;DHT22;38941;53.254;6.600;2022-12-22T12:51:47;11.00;99.90
51837;DHT22;38941;53.254;6.600;2022-12-22T12:58:55;10.50;99.90
51837;DHT22;38941;53.254;6.600;2022-12-22T13:00:57;10.40;99.90
51837;DHT22;38941;53.254;6.600;2022-12-22T13:07:10;10.10;99.90
51837;DHT22;38941;53.254;6.600;2022-12-22T13:09:22;10.10;99.90
51837;DHT22;38941;53.254;6.600;2022-12-22T13:11:49;10.10;99.90
51837;DHT22;38941;53.254;6.600;2022-12-22T13:13:51;10.10;99.90
51837;DHT22;38941;53.254;6.600;2022-12-22T13:18:05;10.30;99.90
51837;DHT22;38941;53.254;6.600;2022-12-22T13:20:18;10.30;99.90
51837;DHT22;38941;53.254;6.600;2022-12-22T13:22:20;10.30;99.90
51837;DHT22;38941;53.254;6.600;2022-12-22T13:24:27;10.30;99.90
51837;DHT22;38941;53.254;6.600;2022-12-22T13:26:34;10.20;99.90
51837;DHT22;38941;53.254;6.600;2022-12-22T13:28:39;10.10;99.90
51837;DHT22;38941;53.254;6.600;2022-12-22T13:30:40;9.90;99.90
51837;DHT22;38941;53.254;6.600;2022-12-22T13:32:48;9.90;99.90
51837;DHT22;38941;53.254;6.600;2022-12-22T13:37:24;9.90;99.90
51837;DHT22;38941;53.254;6.600;2022-12-22T13:39:31;9.80;99.90
51837;DHT22;38941;53.254;6.600;2022-12-22T13:41:33;9.80;99.90
51837;DHT22;38941;53.254;6.600;2022-12-22T13:43:34;9.80;99.90
51837;DHT22;38941;53.254;6.600;2022-12-22T13:45:54;9.70;99.90
51837;DHT22;38941;53.254;6.600;2022-12-22T13:47:57;9.50;99.90
51837;DHT22;38941;53.254;6.600;2022-12-22T13:49:58;9.70;99.90
51837;DHT22;38941;53.254;6.600;2022-12-22T13:51:59;9.70;99.90
51837;DHT22;38941;53.254;6.600;2022-12-22T13:54:24;9.60;99.90
51837;DHT22;38941;53.254;6.600;2022-12-22T13:56:35;9.60;99.90
51837;DHT22;38941;53.254;6.600;2022-12-22T13:58:39;9.50;99.90
51837;DHT22;38941;53.254;6.600;2022-12-22T14:00:40;9.50;99.90
51837;DHT22;38941;53.254;6.600;2022-12-22T14:02:43;9.50;99.90
51837;DHT22;38941;53.254;6.600;2022-12-22T14:05:03;9.40;99.90
51837;DHT22;38941;53.254;6.600;2022-12-22T14:07:22;9.40;99.90
51837;DHT22;38941;53.254;6.600;2022-12-22T14:09:26;9.50;99.90
51837;DHT22;38941;53.254;6.600;2022-12-22T14:11:29;9.50;99.90
51837;DHT22;38941;53.254;6.600;2022-12-22T14:13:31;9.40;99.90
51837;DHT22;38941;53.254;6.600;2022-12-22T14:15:32;9.50;99.90
51837;DHT22;38941;53.254;6.600;2022-12-22T14:17:37;9.50;99.90
51837;DHT22;38941;53.254;6.600;2022-12-22T14:19:40;9.40;99.90
51837;DHT22;38941;53.254;6.600;2022-12-22T14:21:43;9.40;99.90
51837;DHT22;38941;53.254;6.600;2022-12-22T14:23:45;9.40;99.90
51837;DHT22;38941;53.254;6.600;2022-12-22T14:25:48;9.50;99.90
51837;DHT22;38941;53.254;6.600;2022-12-22T14:27:51;9.40;99.90
51837;DHT22;38941;53.254;6.600;2022-12-22T14:29:54;9.50;99.90
51837;DHT22;38941;53.254;6.600;2022-12-22T14:31:58;9.50;99.90
51837;DHT22;38941;53.254;6.600;2022-12-22T14:34:00;9.50;99.90
51837;DHT22;38941;53.254;6.600;2022-12-22T14:36:24;9.40;99.90
51837;DHT22;38941;53.254;6.600;2022-12-22T14:38:25;9.60;99.90
51837;DHT22;38941;53.254;6.600;2022-12-22T14:40:40;9.60;99.90
51837;DHT22;38941;53.254;6.600;2022-12-22T14:42:44;9.60;99.90
51837;DHT22;38941;53.254;6.600;2022-12-22T14:44:46;9.50;99.90
51837;DHT22;38941;53.254;6.600;2022-12-22T14:47:13;9.60;99.90
51837;DHT22;38941;53.254;6.600;2022-12-22T14:49:17;9.50;99.90
51837;DHT22;38941;53.254;6.600;2022-12-22T14:51:19;9.50;99.90
51837;DHT22;38941;53.254;6.600;2022-12-22T14:53:36;9.50;99.90
51837;DHT22;38941;53.254;6.600;2022-12-22T14:55:47;9.50;99.90
51837;DHT22;38941;53.254;6.600;2022-12-22T14:58:15;9.70;99.90
51837;DHT22;38941;53.254;6.600;2022-12-22T15:02:50;9.30;99.90
51837;DHT22;38941;53.254;6.600;2022-12-22T15:05:24;9.70;99.90
51837;DHT22;38941;53.254;6.600;2022-12-22T15:07:24;9.30;99.90
51837;DHT22;38941;53.254;6.600;2022-12-22T15:09:26;9.20;99.90
51837;DHT22;38941;53.254;6.600;2022-12-22T15:11:29;9.20;99.90
51837;DHT22;38941;53.254;6.600;2022-12-22T15:13:31;9.20;99.90
51837;DHT22;38941;53.254;6.600;2022-12-22T15:15:33;8.20;99.90
51837;DHT22;38941;53.254;6.600;2022-12-22T15:17:33;9.20;99.90